createdAt,value
2022-10-13T00:01:24.824Z,25.25
2022-10-13T00:03:53.661Z,23.00
2022-10-13T00:06:24.463Z,25.23
2022-10-13T00:08:54.724Z,27.10
2022-10-13T00:11:27.241Z,27.60
2022-10-13T00:13:59.197Z,23.60
2022-10-13T00:16:31.373Z,22.30
2022-10-13T00:19:00.119Z,26.03
2022-10-13T00:21:29.501Z,24.53
2022-10-13T00:23:59.504Z,21.40
2022-10-13T00:26:28.685Z,20.87
2022-10-13T00:28:57.632Z,25.93
2022-10-13T00:31:28.645Z,22.17
2022-10-13T00:33:58.596Z,22.63
2022-10-13T00:36:26.925Z,20.80
2022-10-13T00:38:55.989Z,19.73
2022-10-13T00:41:25.775Z,20.50
2022-10-13T00:44:01.167Z,24.43
2022-10-13T00:46:32.207Z,20.30
2022-10-13T00:49:07.444Z,22.13
2022-10-13T00:51:41.608Z,21.47
2022-10-13T00:54:14.929Z,24.37
2022-10-13T00:56:46.278Z,19.50
2022-10-13T00:59:23.375Z,19.70
2022-10-13T01:01:55.725Z,23.43
2022-10-13T01:04:30.587Z,24.60
2022-10-13T01:06:59.913Z,21.43
2022-10-13T01:09:34.799Z,21.97
2022-10-13T01:12:14.019Z,24.67
2022-10-13T01:14:53.737Z,24.07
2022-10-13T01:17:34.538Z,24.33
2022-10-13T01:20:51.391Z,22.60
2022-10-13T01:23:56.646Z,18.23
2022-10-13T01:27:25.081Z,21.90
2022-10-13T01:30:16.028Z,22.17
2022-10-13T01:33:20.240Z,23.37
2022-10-13T01:36:11.668Z,24.90
2022-10-13T01:38:48.466Z,22.83
2022-10-13T01:41:27.000Z,27.97
2022-10-13T01:44:05.011Z,28.23
2022-10-13T01:46:38.436Z,25.40
2022-10-13T01:49:12.101Z,23.03
2022-10-13T01:51:41.912Z,23.33
2022-10-13T01:54:10.164Z,19.97
2022-10-13T01:56:38.339Z,19.53
2022-10-13T01:59:12.200Z,22.37
2022-10-13T02:02:00.979Z,22.67
2022-10-13T02:04:46.789Z,22.33
2022-10-13T02:07:24.424Z,24.27
2022-10-13T02:10:03.411Z,23.60
2022-10-13T02:12:37.883Z,25.27
2022-10-13T02:15:11.102Z,22.40
2022-10-13T02:17:42.681Z,24.03
2022-10-13T02:20:12.444Z,24.07
2022-10-13T02:22:48.008Z,23.43
2022-10-13T02:25:16.273Z,31.40
2022-10-13T02:27:44.553Z,28.40
2022-10-13T02:30:24.070Z,25.27
2022-10-13T02:32:53.569Z,27.07
2022-10-13T02:35:21.881Z,26.57
2022-10-13T02:37:50.159Z,26.27
2022-10-13T02:40:18.671Z,26.07
2022-10-13T02:42:46.736Z,26.20
2022-10-13T02:45:15.055Z,25.70
2022-10-13T02:47:43.214Z,30.83
2022-10-13T02:50:13.232Z,26.73
2022-10-13T02:52:41.433Z,27.60
2022-10-13T02:55:10.582Z,26.77
2022-10-13T02:57:39.644Z,26.97
2022-10-13T03:00:09.504Z,28.87
2022-10-13T03:02:37.662Z,31.23
2022-10-13T03:05:06.601Z,28.37
2022-10-13T03:07:36.233Z,27.90
2022-10-13T03:10:05.824Z,24.27
2022-10-13T03:12:33.985Z,31.27
2022-10-13T03:15:02.268Z,27.47
2022-10-13T03:17:30.461Z,25.07
2022-10-13T03:19:58.542Z,27.17
2022-10-13T03:22:26.843Z,23.67
2022-10-13T03:24:56.412Z,24.57
2022-10-13T03:27:24.497Z,21.23
2022-10-13T03:29:52.801Z,30.90
2022-10-13T03:32:21.148Z,28.80
2022-10-13T03:34:50.376Z,32.73
2022-10-13T03:37:18.899Z,29.77
2022-10-13T03:39:47.022Z,29.07
2022-10-13T03:42:17.995Z,27.70
2022-10-13T03:44:55.204Z,29.97
2022-10-13T03:47:24.736Z,30.13
2022-10-13T03:49:54.151Z,30.20
2022-10-13T03:52:22.675Z,30.80
2022-10-13T03:54:51.135Z,29.40
2022-10-13T03:57:20.647Z,33.63
2022-10-13T03:59:48.756Z,33.27
2022-10-13T04:02:16.956Z,28.97
2022-10-13T04:04:45.189Z,27.63
2022-10-13T04:07:13.272Z,33.13
2022-10-13T04:09:41.543Z,26.92
2022-10-13T04:12:09.770Z,31.13
2022-10-13T04:14:39.386Z,30.47
2022-10-13T04:17:09.482Z,29.35
2022-10-13T04:19:37.606Z,32.77
2022-10-13T04:22:07.069Z,28.33
2022-10-13T04:24:35.971Z,27.75
2022-10-13T04:27:04.074Z,26.17
2022-10-13T04:29:32.206Z,31.83
2022-10-13T04:32:04.010Z,28.13
2022-10-13T04:34:32.220Z,28.98
2022-10-13T04:37:00.293Z,24.40
2022-10-13T04:39:28.349Z,24.65
2022-10-13T04:41:57.081Z,31.00
2022-10-13T04:44:25.178Z,26.67
2022-10-13T04:46:53.302Z,33.38
2022-10-13T04:49:22.738Z,26.55
2022-10-13T04:51:50.933Z,26.85
2022-10-13T04:54:19.957Z,31.60
2022-10-13T04:56:48.326Z,28.83
2022-10-13T04:59:16.392Z,29.83
2022-10-13T05:01:44.492Z,33.17
2022-10-13T05:04:14.617Z,29.13
2022-10-13T05:07:12.510Z,30.63
2022-10-13T05:09:32.419Z,28.20
2022-10-13T05:12:00.533Z,28.83
2022-10-13T05:14:28.759Z,30.23
2022-10-13T05:16:56.858Z,28.23
2022-10-13T05:19:25.133Z,30.63
2022-10-13T05:21:54.620Z,31.13
2022-10-13T05:24:31.110Z,35.30
2022-10-13T05:26:59.526Z,36.20
2022-10-13T05:29:27.873Z,37.63
2022-10-13T05:31:55.998Z,33.00
2022-10-13T05:34:24.058Z,42.60
2022-10-13T05:36:52.135Z,42.65
2022-10-13T05:39:21.592Z,45.30
2022-10-13T05:41:49.697Z,40.97
2022-10-13T05:44:22.794Z,43.78
2022-10-13T05:46:56.900Z,44.65
2022-10-13T05:49:25.074Z,43.63
2022-10-13T05:51:57.987Z,43.57
2022-10-13T05:54:35.101Z,44.85
2022-10-13T05:57:09.420Z,41.42
2022-10-13T05:59:42.890Z,35.60
2022-10-13T06:02:15.936Z,42.47
2022-10-13T06:04:48.337Z,36.83
2022-10-13T06:07:16.471Z,36.97
2022-10-13T06:09:46.087Z,37.83
2022-10-13T06:12:14.430Z,40.00
2022-10-13T06:14:42.516Z,39.35
2022-10-13T06:17:12.879Z,36.87
2022-10-13T06:19:45.268Z,33.28
2022-10-13T06:22:13.436Z,35.08
2022-10-13T06:24:41.568Z,35.63
2022-10-13T06:27:12.028Z,36.03
2022-10-13T06:29:40.200Z,35.22
2022-10-13T06:32:08.549Z,38.60
2022-10-13T06:34:37.880Z,35.13
2022-10-13T06:37:06.688Z,38.23
2022-10-13T06:39:35.204Z,36.13
2022-10-13T06:42:05.507Z,36.20
2022-10-13T06:44:40.379Z,35.85
2022-10-13T06:47:08.532Z,34.47
2022-10-13T06:49:36.655Z,35.15
2022-10-13T06:52:06.322Z,37.00
2022-10-13T06:54:34.533Z,35.25
2022-10-13T06:57:02.661Z,32.40
2022-10-13T06:59:30.719Z,31.45
2022-10-13T07:02:00.209Z,31.95
2022-10-13T07:04:28.654Z,32.38
2022-10-13T07:06:59.259Z,34.65
2022-10-13T07:09:27.447Z,29.13
2022-10-13T07:11:55.668Z,28.55
2022-10-13T07:14:23.842Z,30.65
2022-10-13T07:16:52.426Z,27.08
2022-10-13T07:19:22.099Z,28.27
2022-10-13T07:21:50.182Z,25.40
2022-10-13T07:24:18.386Z,28.80
2022-10-13T07:26:46.489Z,24.75
2022-10-13T07:29:14.579Z,28.30
2022-10-13T07:31:44.675Z,26.17
2022-10-13T07:34:13.245Z,27.50
2022-10-13T07:36:42.792Z,25.48
2022-10-13T07:39:11.095Z,23.63
2022-10-13T07:41:39.294Z,24.15
2022-10-13T07:44:07.426Z,25.92
2022-10-13T07:46:35.556Z,22.33
2022-10-13T07:49:03.710Z,22.63
2022-10-13T07:51:31.838Z,23.20
2022-10-13T07:54:01.339Z,23.45
2022-10-13T07:56:29.439Z,24.25
2022-10-13T07:58:57.629Z,23.13
2022-10-13T08:01:25.938Z,21.70
2022-10-13T08:03:56.794Z,21.25
2022-10-13T08:06:25.065Z,21.58
2022-10-13T08:08:57.622Z,19.52
2022-10-13T08:11:27.957Z,21.15
2022-10-13T08:14:00.551Z,20.55
2022-10-13T08:16:29.659Z,22.20
2022-10-13T08:18:59.000Z,22.50
2022-10-13T08:24:19.364Z,22.70
2022-10-13T08:26:49.405Z,20.70
2022-10-13T08:29:23.082Z,21.10
2022-10-13T08:31:53.670Z,19.35
2022-10-13T08:34:22.932Z,20.55
2022-10-13T08:36:53.138Z,22.88
2022-10-13T08:39:22.896Z,19.25
2022-10-13T08:41:54.175Z,19.48
2022-10-13T08:47:29.149Z,19.80
2022-10-13T08:50:01.149Z,18.77
2022-10-13T08:52:43.906Z,19.70
2022-10-13T08:55:23.582Z,19.92
2022-10-13T08:57:53.848Z,18.40
2022-10-13T09:00:29.673Z,16.77
2022-10-13T09:03:20.469Z,18.90
2022-10-13T09:06:06.032Z,19.33
2022-10-13T09:08:42.451Z,21.27
2022-10-13T09:11:13.553Z,17.02
2022-10-13T09:13:43.179Z,18.08
2022-10-13T09:16:11.413Z,17.42
2022-10-13T09:18:40.469Z,24.48
2022-10-13T09:21:24.084Z,18.92
2022-10-13T09:23:54.857Z,18.30
2022-10-13T09:26:25.605Z,16.27
2022-10-13T09:28:55.166Z,18.77
2022-10-13T09:31:28.393Z,17.45
2022-10-13T09:34:01.881Z,18.88
2022-10-13T09:36:31.684Z,16.40
2022-10-13T09:39:12.795Z,15.35
2022-10-13T09:41:43.102Z,17.48
2022-10-13T09:44:18.912Z,18.77
2022-10-13T09:46:54.739Z,16.73
2022-10-13T09:49:37.694Z,15.93
2022-10-13T09:52:20.026Z,17.65
2022-10-13T09:54:51.145Z,12.98
2022-10-13T09:57:29.869Z,18.80
2022-10-13T10:00:15.104Z,16.23
2022-10-13T10:02:52.313Z,16.17
2022-10-13T10:05:26.643Z,16.35
2022-10-13T10:08:05.168Z,13.20
2022-10-13T10:10:40.416Z,13.75
2022-10-13T10:13:13.128Z,15.02
2022-10-13T10:15:56.613Z,14.77
2022-10-13T10:18:37.674Z,14.93
2022-10-13T10:21:16.491Z,17.50
2022-10-13T10:23:52.958Z,11.90
2022-10-13T10:26:32.638Z,12.93
2022-10-13T10:29:34.891Z,13.50
2022-10-13T10:32:30.031Z,15.75
2022-10-13T10:35:05.204Z,16.15
2022-10-13T10:38:07.903Z,11.82
2022-10-13T10:40:45.159Z,15.73
2022-10-13T10:43:44.277Z,16.33
2022-10-13T10:46:19.252Z,14.63
2022-10-13T10:48:53.875Z,16.20
2022-10-13T10:51:29.174Z,11.55
2022-10-13T10:54:13.640Z,15.10
2022-10-13T10:56:48.077Z,16.45
2022-10-13T10:59:42.432Z,21.50
2022-10-13T11:02:35.838Z,15.07
2022-10-13T11:05:06.675Z,16.58
2022-10-13T11:07:59.051Z,13.48
2022-10-13T11:10:29.661Z,14.07
2022-10-13T11:13:22.277Z,15.02
2022-10-13T11:15:50.964Z,17.40
2022-10-13T11:19:05.870Z,16.17
2022-10-13T11:22:23.959Z,13.45
2022-10-13T11:25:00.869Z,11.55
2022-10-13T11:27:45.189Z,15.23
2022-10-13T11:30:49.894Z,13.73
2022-10-13T11:33:54.669Z,10.38
2022-10-13T11:36:57.614Z,13.50
2022-10-13T11:40:16.108Z,12.77
2022-10-13T11:43:20.048Z,12.68
2022-10-13T11:46:27.592Z,12.45
2022-10-13T11:49:56.240Z,13.20
2022-10-13T11:52:44.702Z,9.95
2022-10-13T11:55:20.509Z,16.85
2022-10-13T11:57:49.221Z,10.07
2022-10-13T12:00:20.201Z,12.85
2022-10-13T12:02:50.822Z,14.98
2022-10-13T12:05:27.365Z,12.05
2022-10-13T12:08:01.929Z,13.77
2022-10-13T12:10:34.092Z,15.05
2022-10-13T12:13:05.120Z,15.82
2022-10-13T12:15:37.230Z,19.88
2022-10-13T12:18:24.512Z,12.70
2022-10-13T12:20:58.458Z,15.10
2022-10-13T12:23:27.924Z,18.10
2022-10-13T12:25:58.528Z,16.05
2022-10-13T12:28:31.139Z,18.73
2022-10-13T12:31:01.486Z,12.07
2022-10-13T12:33:35.270Z,17.05
2022-10-13T12:36:15.097Z,20.13
2022-10-13T12:38:50.327Z,15.75
2022-10-13T12:41:26.382Z,18.15
2022-10-13T12:43:55.541Z,20.40
2022-10-13T12:46:42.117Z,18.77
2022-10-13T12:49:18.048Z,18.00
2022-10-13T12:51:50.286Z,12.77
2022-10-13T12:54:27.837Z,16.52
2022-10-13T12:57:00.545Z,16.30
2022-10-13T12:59:31.822Z,16.58
2022-10-13T13:02:03.313Z,14.98
2022-10-13T13:04:43.109Z,14.40
2022-10-13T13:07:31.869Z,17.33
2022-10-13T13:10:16.833Z,15.15
2022-10-13T13:12:48.430Z,15.90
2022-10-13T13:15:36.083Z,14.95
2022-10-13T13:18:29.485Z,13.27
2022-10-13T13:20:58.528Z,11.35
2022-10-13T13:23:33.174Z,18.70
2022-10-13T13:26:03.918Z,16.58
2022-10-13T13:28:34.136Z,14.95
2022-10-13T13:31:05.399Z,18.45
2022-10-13T13:33:33.521Z,17.95
2022-10-13T13:36:03.315Z,13.68
2022-10-13T13:38:32.154Z,16.02
2022-10-13T13:41:03.170Z,13.73
2022-10-13T13:43:33.737Z,17.98
2022-10-13T13:46:01.901Z,18.50
2022-10-13T13:48:30.046Z,15.25
2022-10-13T13:50:59.296Z,14.85
2022-10-13T13:53:27.372Z,19.50
2022-10-13T13:55:55.546Z,15.73
2022-10-13T13:58:23.695Z,15.55
2022-10-13T14:00:54.792Z,15.13
2022-10-13T14:03:22.892Z,18.00
2022-10-13T14:05:51.009Z,17.35
2022-10-13T14:08:20.248Z,19.70
2022-10-13T14:10:48.408Z,16.00
2022-10-13T14:13:19.641Z,16.98
2022-10-13T14:15:56.892Z,17.42
2022-10-13T14:18:26.822Z,18.80
2022-10-13T14:20:54.974Z,16.20
2022-10-13T14:23:23.303Z,14.88
2022-10-13T14:25:51.443Z,16.85
2022-10-13T14:28:22.021Z,17.58
2022-10-13T14:30:50.210Z,16.02
2022-10-13T14:33:19.597Z,21.45
2022-10-13T14:35:49.181Z,14.43
2022-10-13T14:38:17.614Z,19.67
2022-10-13T14:40:45.772Z,19.40
2022-10-13T14:43:13.875Z,14.48
2022-10-13T14:45:41.979Z,16.10
2022-10-13T14:48:12.198Z,17.90
2022-10-13T14:50:40.388Z,14.40
2022-10-13T14:53:15.269Z,14.18
2022-10-13T14:55:44.053Z,19.17
2022-10-13T14:58:13.469Z,15.93
2022-10-13T15:00:44.263Z,14.27
2022-10-13T15:03:12.603Z,16.58
2022-10-13T15:05:40.797Z,18.30
2022-10-13T15:08:10.223Z,17.40
2022-10-13T15:10:38.696Z,15.68
2022-10-13T15:13:06.895Z,18.63
2022-10-13T15:15:35.028Z,15.30
2022-10-13T15:18:03.125Z,18.50
2022-10-13T15:20:31.217Z,14.23
2022-10-13T15:22:59.296Z,15.20
2022-10-13T15:25:28.745Z,16.60
2022-10-13T15:27:56.819Z,13.23
2022-10-13T15:30:24.918Z,10.80
2022-10-13T15:32:53.048Z,13.88
2022-10-13T15:35:21.161Z,20.35
2022-10-13T15:37:49.269Z,10.50
2022-10-13T15:40:17.484Z,12.85
2022-10-13T15:42:46.962Z,17.70
2022-10-13T15:45:16.081Z,15.88
2022-10-13T15:47:44.185Z,13.30
2022-10-13T15:50:12.350Z,14.50
2022-10-13T15:52:41.192Z,15.02
2022-10-13T15:55:12.407Z,14.50
2022-10-13T15:57:40.696Z,16.48
2022-10-13T16:00:13.679Z,18.50
2022-10-13T16:02:43.630Z,16.05
2022-10-13T16:05:13.969Z,20.05
2022-10-13T16:07:42.916Z,14.75
2022-10-13T16:10:14.514Z,14.68
2022-10-13T16:12:49.237Z,15.43
2022-10-13T16:15:20.051Z,23.98
2022-10-13T16:17:48.151Z,19.92
2022-10-13T16:20:16.335Z,18.63
2022-10-13T16:22:44.540Z,20.00
2022-10-13T16:25:12.746Z,21.20
2022-10-13T16:27:44.347Z,17.88
2022-10-13T16:30:14.151Z,18.15
2022-10-13T16:32:43.662Z,17.08
2022-10-13T16:35:12.161Z,14.07
2022-10-13T16:37:40.242Z,15.98
2022-10-13T16:40:09.869Z,18.77
2022-10-13T16:42:38.116Z,15.98
2022-10-13T16:45:08.156Z,14.65
2022-10-13T16:47:36.335Z,16.58
2022-10-13T16:50:09.483Z,20.13
2022-10-13T16:52:37.925Z,17.30
2022-10-13T16:55:08.030Z,13.52
2022-10-13T16:57:36.211Z,18.08
2022-10-13T17:00:05.457Z,22.42
2022-10-13T17:02:33.561Z,34.83
2022-10-13T17:05:01.704Z,25.45
2022-10-13T17:07:31.187Z,38.72
2022-10-13T17:09:59.618Z,115.32
2022-10-13T17:12:27.738Z,67.53
2022-10-13T17:14:55.797Z,53.15
2022-10-13T17:17:23.923Z,30.85
2022-10-13T17:19:52.138Z,20.13
2022-10-13T17:22:20.292Z,19.65
2022-10-13T17:24:49.890Z,25.15
2022-10-13T17:27:18.471Z,28.05
2022-10-13T17:29:46.938Z,33.67
2022-10-13T17:32:15.373Z,46.30
2022-10-13T17:34:43.478Z,27.55
2022-10-13T17:37:14.885Z,24.80
2022-10-13T17:39:42.999Z,37.78
2022-10-13T17:42:12.894Z,31.20
2022-10-13T17:44:42.086Z,34.20
2022-10-13T17:47:11.637Z,37.53
2022-10-13T17:49:39.921Z,41.45
2022-10-13T17:52:08.064Z,36.15
2022-10-13T17:54:36.206Z,30.25
2022-10-13T17:57:05.497Z,28.45
2022-10-13T17:59:35.029Z,24.08
2022-10-13T18:02:03.239Z,26.90
2022-10-13T18:04:31.363Z,25.90
2022-10-13T18:06:59.459Z,24.98
2022-10-13T18:09:27.638Z,23.88
2022-10-13T18:11:56.322Z,26.90
2022-10-13T18:14:25.943Z,20.67
2022-10-13T18:16:56.334Z,22.05
2022-10-13T18:19:24.813Z,19.70
2022-10-13T18:21:53.164Z,22.92
2022-10-13T18:24:21.442Z,19.30
2022-10-13T18:26:49.622Z,21.85
2022-10-13T18:29:17.782Z,22.00
2022-10-13T18:31:46.263Z,22.00
2022-10-13T18:34:18.040Z,28.88
2022-10-13T18:36:48.453Z,24.92
2022-10-13T18:39:19.165Z,24.42
2022-10-13T18:41:50.107Z,23.00
2022-10-13T18:44:19.013Z,20.77
2022-10-13T18:46:51.050Z,21.77
2022-10-13T18:49:23.780Z,24.92
2022-10-13T18:51:52.473Z,25.92
2022-10-13T18:54:20.626Z,22.20
2022-10-13T18:56:48.816Z,22.35
2022-10-13T18:59:17.576Z,22.65
2022-10-13T19:01:45.741Z,25.02
2022-10-13T19:04:15.746Z,27.75
2022-10-13T19:06:46.333Z,23.95
2022-10-13T19:09:17.325Z,22.85
2022-10-13T19:11:45.930Z,21.83
2022-10-13T19:14:17.672Z,22.90
2022-10-13T19:16:46.087Z,25.63
2022-10-13T19:19:15.383Z,22.98
2022-10-13T19:21:45.141Z,25.55
2022-10-13T19:24:13.524Z,22.73
2022-10-13T19:26:42.273Z,25.92
2022-10-13T19:29:15.616Z,24.67
2022-10-13T19:31:45.007Z,20.65
2022-10-13T19:34:14.829Z,23.00
2022-10-13T19:36:47.207Z,23.83
2022-10-13T19:39:19.353Z,20.20
2022-10-13T19:41:49.469Z,27.30
2022-10-13T19:44:19.933Z,34.00
2022-10-13T19:46:49.289Z,26.70
2022-10-13T19:49:22.715Z,32.60
2022-10-13T19:51:54.014Z,20.55
2022-10-13T19:54:24.313Z,24.15
2022-10-13T19:56:52.519Z,19.20
2022-10-13T19:59:20.933Z,17.30
2022-10-13T20:01:49.345Z,18.00
2022-10-13T20:04:20.331Z,19.45
2022-10-13T20:06:49.256Z,17.38
2022-10-13T20:09:19.803Z,17.10
2022-10-13T20:11:49.881Z,27.75
2022-10-13T20:14:18.779Z,24.42
2022-10-13T20:16:47.117Z,37.30
2022-10-13T20:19:19.271Z,19.52
2022-10-13T20:21:51.553Z,18.70
2022-10-13T20:24:23.510Z,21.08
2022-10-13T20:26:51.820Z,24.50
2022-10-13T20:29:23.600Z,22.42
2022-10-13T20:31:51.791Z,17.58
2022-10-13T20:34:19.881Z,27.15
2022-10-13T20:36:50.817Z,20.40
2022-10-13T20:39:20.294Z,24.90
2022-10-13T20:41:48.406Z,24.77
2022-10-13T20:44:16.481Z,22.30
2022-10-13T20:46:44.656Z,29.13
2022-10-13T20:49:13.597Z,33.28
2022-10-13T20:51:42.813Z,33.88
2022-10-13T20:54:12.108Z,30.40
2022-10-13T20:56:41.982Z,22.63
2022-10-13T20:59:12.626Z,24.02
2022-10-13T21:01:41.246Z,16.33
2022-10-13T21:04:09.346Z,17.10
2022-10-13T21:06:37.563Z,23.17
2022-10-13T21:09:06.814Z,20.13
2022-10-13T21:11:36.914Z,24.20
2022-10-13T21:14:10.137Z,19.98
2022-10-13T21:16:39.203Z,17.65
2022-10-13T21:19:10.274Z,15.82
2022-10-13T21:21:38.867Z,24.23
2022-10-13T21:24:09.268Z,23.73
2022-10-13T21:26:38.372Z,21.00
2022-10-13T21:29:08.055Z,21.63
2022-10-13T21:31:36.755Z,19.30
2022-10-13T21:34:05.304Z,17.20
2022-10-13T21:36:34.700Z,18.77
2022-10-13T21:39:06.444Z,18.52
2022-10-13T21:41:34.906Z,16.35
2022-10-13T21:44:03.779Z,17.25
2022-10-13T21:46:36.421Z,22.02
2022-10-13T21:49:06.993Z,15.07
2022-10-13T21:51:38.196Z,18.90
2022-10-13T21:54:09.735Z,16.23
2022-10-13T21:56:38.800Z,16.38
2022-10-13T21:59:08.016Z,15.88
2022-10-13T22:01:37.422Z,14.23
2022-10-13T22:04:12.569Z,20.20
2022-10-13T22:06:40.915Z,16.67
2022-10-13T22:09:09.685Z,18.10
2022-10-13T22:11:40.218Z,14.60
2022-10-13T22:14:12.130Z,15.93
2022-10-13T22:16:44.242Z,14.80
2022-10-13T22:19:13.055Z,15.05
2022-10-13T22:21:44.678Z,15.10
2022-10-13T22:24:15.930Z,18.20
2022-10-13T22:26:46.557Z,17.85
2022-10-13T22:29:20.875Z,18.85
2022-10-13T22:31:51.376Z,19.45
2022-10-13T22:34:19.519Z,14.45
2022-10-13T22:36:48.141Z,14.55
2022-10-13T22:39:17.024Z,17.83
2022-10-13T22:41:45.932Z,16.13
2022-10-13T22:44:14.802Z,20.75
2022-10-13T22:46:43.223Z,17.95
2022-10-13T22:49:15.953Z,17.17
2022-10-13T22:51:44.063Z,18.15
2022-10-13T22:54:12.415Z,19.45
2022-10-13T22:56:43.086Z,21.63
2022-10-13T22:59:13.713Z,22.02
2022-10-13T23:01:42.238Z,21.75
2022-10-13T23:04:10.481Z,21.90
2022-10-13T23:06:40.032Z,19.23
2022-10-13T23:09:13.445Z,22.45
2022-10-13T23:11:41.879Z,20.58
2022-10-13T23:14:12.261Z,19.60
2022-10-13T23:16:40.460Z,20.17
2022-10-13T23:19:08.603Z,16.10
2022-10-13T23:21:36.700Z,20.63
2022-10-13T23:24:08.177Z,22.55
2022-10-13T23:26:36.810Z,18.25
2022-10-13T23:29:05.844Z,16.63
2022-10-13T23:31:34.319Z,17.63
2022-10-13T23:34:02.475Z,17.10
2022-10-13T23:36:33.357Z,16.45
2022-10-13T23:39:05.776Z,16.45
2022-10-13T23:41:34.392Z,18.13
2022-10-13T23:44:02.529Z,18.42
2022-10-13T23:46:30.742Z,18.50
2022-10-13T23:48:58.845Z,19.63
2022-10-13T23:51:27.635Z,16.13
2022-10-13T23:53:56.141Z,22.33
2022-10-13T23:56:26.009Z,19.17
2022-10-13T23:58:54.225Z,18.48
